Time;durP1;ratioP1;P1;durP2;ratioP2;P2;SDS_P1;SDS_P2;PMS_P1;PMS_P2;Temp;Humidity;BMP_temperature;BMP_pressure;BME280_temperature;BME280_humidity;BME280_pressure;Samples;Min_cycle;Max_cycle;Signal;HPM_P1;HPM_P2
2023/03/05 00:01:06;;;;;;;;;;;;;;;3.36;100.00;102435.75;5066110;28;19924;-73
2023/03/05 00:03:31;;;;;;;;;;;;;;;3.32;100.00;102432.38;5063083;28;19944;-74
2023/03/05 00:05:57;;;;;;;;;;;;;;;3.30;100.00;102422.63;5082952;28;19927;-74
2023/03/05 00:08:22;;;;;;;;;;;;;;;3.15;100.00;102427.31;5066955;28;21623;-74
2023/03/05 00:10:54;;;;;;;;;;;;;;;3.05;100.00;102415.44;5063521;28;19920;-74
2023/03/05 00:13:19;;;;;;;;;;;;;;;2.99;100.00;102415.88;5067746;28;19924;-75
2023/03/05 00:15:45;;;;;;;;;;;;;;;2.87;100.00;102419.47;5060064;28;19916;-74
2023/03/05 00:18:10;;;;;;;;;;;;;;;2.77;100.00;102404.00;5053071;28;19916;-75
2023/03/05 00:20:35;;;;;;;;;;;;;;;2.77;100.00;102414.81;5061026;28;20054;-74
2023/03/05 00:23:00;;;;;;;;;;;;;;;2.62;100.00;102397.00;5069522;28;20356;-74
2023/03/05 00:25:26;;;;;;;;;;;;;;;2.58;100.00;102400.88;5064060;28;20383;-74
2023/03/05 00:27:51;;;;;;;;;;;;;;;2.45;100.00;102400.00;5070674;28;20401;-74
2023/03/05 00:30:16;;;;;;;;;;;;;;;2.36;100.00;102392.56;5060397;28;19916;-75
2023/03/05 00:32:41;;;;;;;;;;;;;;;2.25;100.00;102398.69;5066865;28;20376;-75
2023/03/05 00:35:07;;;;;;;;;;;;;;;2.20;100.00;102406.25;5052910;28;19916;-74
2023/03/05 00:37:32;;;;;;;;;;;;;;;2.15;100.00;102399.44;5060012;28;19913;-73
2023/03/05 00:39:58;;;;;;;;;;;;;;;2.10;100.00;102394.34;5068380;28;19924;-74
2023/03/05 00:42:23;;;;;;;;;;;;;;;2.13;100.00;102394.13;5069026;28;19922;-75
2023/03/05 00:44:48;;;;;;;;;;;;;;;2.16;100.00;102391.25;5064693;28;19924;-75
2023/03/05 00:47:17;;;;;;;;;;;;;;;2.16;100.00;102391.25;5083868;28;19928;-75
2023/03/05 00:49:42;;;;;;;;;;;;;;;2.13;100.00;102391.44;5064942;28;19990;-75
2023/03/05 00:52:07;;;;;;;;;;;;;;;2.10;100.00;102385.38;5072136;28;19917;-75
2023/03/05 00:54:34;;;;;;;;;;;;;;;2.03;100.00;102386.78;5071736;28;20031;-74
2023/03/05 00:56:59;;;;;;;;;;;;;;;1.93;100.00;102380.28;5061195;28;19920;-75
2023/03/05 00:59:24;;;;;;;;;;;;;;;1.88;100.00;102383.28;5074368;28;20019;-74
2023/03/05 01:01:50;;;;;;;;;;;;;;;1.83;100.00;102376.47;5066429;28;19923;-75
2023/03/05 01:04:16;;;;;;;;;;;;;;;1.75;100.00;102373.41;5065145;28;19917;-74
2023/03/05 01:06:43;;;;;;;;;;;;;;;1.66;100.00;102369.50;5073517;28;19980;-75
2023/03/05 01:09:10;;;;;;;;;;;;;;;1.63;100.00;102376.94;5045942;28;20361;-75
2023/03/05 01:11:35;;;;;;;;;;;;;;;1.66;100.00;102365.94;5064656;28;20265;-74
2023/03/05 01:14:00;;;;;;;;;;;;;;;1.71;100.00;102364.66;5067963;28;19927;-75
2023/03/05 01:16:26;;;;;;;;;;;;;;;1.79;100.00;102365.00;5063238;28;19928;-75
2023/03/05 01:18:51;;;;;;;;;;;;;;;1.84;100.00;102360.16;5048673;28;20460;-74
2023/03/05 01:21:16;;;;;;;;;;;;;;;1.89;100.00;102362.53;5068441;28;20383;-75
2023/03/05 01:23:41;;;;;;;;;;;;;;;1.94;100.00;102353.13;5064180;28;19917;-74
2023/03/05 01:26:07;;;;;;;;;;;;;;;2.03;100.00;102348.97;5071599;28;20015;-74
2023/03/05 01:28:33;;;;;;;;;;;;;;;2.08;100.00;102352.22;5075992;28;19924;-74
2023/03/05 01:30:58;;;;;;;;;;;;;;;2.13;100.00;102347.31;5065323;28;19920;-74
2023/03/05 01:33:23;;;;;;;;;;;;;;;2.16;100.00;102339.88;5045084;28;19917;-74
2023/03/05 01:35:49;;;;;;;;;;;;;;;2.21;100.00;102336.84;5071474;28;19962;-74
2023/03/05 01:38:15;;;;;;;;;;;;;;;2.28;100.00;102338.13;5063301;28;20299;-75
2023/03/05 01:40:40;;;;;;;;;;;;;;;2.31;100.00;102332.53;5065929;28;19916;-75
2023/03/05 01:43:12;;;;;;;;;;;;;;;2.34;100.00;102324.19;5071945;28;19978;-74
2023/03/05 01:45:37;;;;;;;;;;;;;;;2.40;100.00;102318.38;5065169;28;19978;-75
2023/03/05 01:48:03;;;;;;;;;;;;;;;2.42;100.00;102316.41;5067308;28;19924;-76
2023/03/05 01:50:28;;;;;;;;;;;;;;;2.43;100.00;102312.72;5066641;28;19928;-74
2023/03/05 01:52:57;;;;;;;;;;;;;;;2.46;100.00;102315.22;5068893;28;20372;-75
2023/03/05 01:55:24;;;;;;;;;;;;;;;2.49;100.00;102310.47;5066244;28;19928;-74
2023/03/05 01:57:52;;;;;;;;;;;;;;;2.55;100.00;102301.03;5048330;28;20035;-75
2023/03/05 02:00:21;;;;;;;;;;;;;;;2.58;100.00;102295.41;5044148;28;20292;-75
2023/03/05 02:02:47;;;;;;;;;;;;;;;2.71;100.00;102290.81;5065984;28;19916;-74
2023/03/05 02:05:17;;;;;;;;;;;;;;;2.81;100.00;102287.34;5068793;28;20053;-73
2023/03/05 02:07:43;;;;;;;;;;;;;;;2.87;100.00;102289.59;5068707;28;19924;-73
2023/03/05 02:10:15;;;;;;;;;;;;;;;2.97;100.00;102276.25;5046533;28;19920;-74
2023/03/05 02:12:41;;;;;;;;;;;;;;;2.93;100.00;102278.31;5065035;28;19961;-73
2023/03/05 02:15:06;;;;;;;;;;;;;;;2.93;100.00;102266.63;5061996;28;19927;-73
2023/03/05 02:17:32;;;;;;;;;;;;;;;2.95;100.00;102270.09;5076045;28;19916;-74
2023/03/05 02:20:03;;;;;;;;;;;;;;;3.04;100.00;102274.84;5066754;28;19947;-73
2023/03/05 02:22:29;;;;;;;;;;;;;;;3.02;100.00;102265.94;5069242;28;19920;-74
2023/03/05 02:24:54;;;;;;;;;;;;;;;2.99;100.00;102264.34;5063350;28;20019;-74
2023/03/05 02:27:21;;;;;;;;;;;;;;;3.02;100.00;102255.13;5071851;28;19959;-73
2023/03/05 02:29:46;;;;;;;;;;;;;;;3.04;100.00;102253.19;5064075;28;19924;-74
2023/03/05 02:32:12;;;;;;;;;;;;;;;3.06;100.00;102246.66;5050988;28;20295;-74
2023/03/05 02:34:38;;;;;;;;;;;;;;;3.11;100.00;102243.63;5046536;28;19916;-75
2023/03/05 02:37:03;;;;;;;;;;;;;;;3.08;100.00;102241.13;5065295;28;19943;-74
2023/03/05 02:39:30;;;;;;;;;;;;;;;3.06;100.00;102235.81;5063505;28;19921;-74
2023/03/05 02:41:55;;;;;;;;;;;;;;;3.09;100.00;102229.31;5066963;28;20007;-74
2023/03/05 02:44:20;;;;;;;;;;;;;;;3.06;100.00;102222.28;5050516;28;20336;-75
2023/03/05 02:46:46;;;;;;;;;;;;;;;3.04;100.00;102229.69;5063966;28;19921;-74
2023/03/05 02:49:11;;;;;;;;;;;;;;;3.04;100.00;102226.13;5067557;28;20295;-74
2023/03/05 02:51:36;;;;;;;;;;;;;;;3.04;100.00;102220.72;5028539;28;19920;-74
2023/03/05 02:54:02;;;;;;;;;;;;;;;3.08;100.00;102217.66;5064511;28;19948;-75
2023/03/05 02:56:27;;;;;;;;;;;;;;;3.03;100.00;102218.97;5065924;28;19912;-75
2023/03/05 02:58:52;;;;;;;;;;;;;;;3.04;100.00;102215.31;5045631;28;19917;-75
2023/03/05 03:01:17;;;;;;;;;;;;;;;2.97;100.00;102216.72;5045200;28;19921;-75
2023/03/05 03:03:43;;;;;;;;;;;;;;;2.94;100.00;102208.84;5063490;28;19924;-74
2023/03/05 03:06:08;;;;;;;;;;;;;;;2.88;100.00;102203.91;5064128;28;20557;-73
2023/03/05 03:08:33;;;;;;;;;;;;;;;2.82;100.00;102210.63;5065293;28;20396;-74
2023/03/05 03:11:07;;;;;;;;;;;;;;;2.74;100.00;102201.34;5064915;28;19997;-74
2023/03/05 03:13:33;;;;;;;;;;;;;;;2.66;100.00;102196.50;5065227;28;19917;-74
2023/03/05 03:16:06;;;;;;;;;;;;;;;2.62;100.00;102199.56;5046472;28;19999;-75
2023/03/05 03:18:31;;;;;;;;;;;;;;;2.58;100.00;102189.94;5068473;28;20001;-74
2023/03/05 03:20:56;;;;;;;;;;;;;;;2.65;100.00;102192.09;5069536;28;19972;-74
2023/03/05 03:23:21;;;;;;;;;;;;;;;2.64;100.00;102184.06;5074184;28;19948;-74
2023/03/05 03:25:47;;;;;;;;;;;;;;;2.70;100.00;102189.03;5063561;28;20342;-75
2023/03/05 03:28:12;;;;;;;;;;;;;;;2.71;100.00;102188.03;5063384;28;19923;-73
2023/03/05 03:30:37;;;;;;;;;;;;;;;2.73;100.00;102183.41;5047767;28;19912;-74
2023/03/05 03:33:02;;;;;;;;;;;;;;;2.75;100.00;102182.31;5050407;28;19973;-75
2023/03/05 03:35:28;;;;;;;;;;;;;;;2.86;100.00;102176.06;5069295;28;20315;-75
2023/03/05 03:37:53;;;;;;;;;;;;;;;2.89;100.00;102183.97;5065265;28;19952;-75
2023/03/05 03:40:18;;;;;;;;;;;;;;;2.96;100.00;102175.28;5048294;28;19920;-74
2023/03/05 03:42:43;;;;;;;;;;;;;;;3.00;100.00;102165.09;5068179;28;19912;-74
2023/03/05 03:45:09;;;;;;;;;;;;;;;3.08;100.00;102174.34;5063512;28;20161;-74
2023/03/05 03:47:34;;;;;;;;;;;;;;;3.21;100.00;102174.28;5067810;28;19920;-74
2023/03/05 03:50:00;;;;;;;;;;;;;;;3.24;100.00;102169.47;5064493;28;20353;-74
2023/03/05 03:52:25;;;;;;;;;;;;;;;3.25;100.00;102181.16;5064582;28;20261;-74
2023/03/05 03:54:51;;;;;;;;;;;;;;;3.27;100.00;102174.63;5047123;28;19923;-73
2023/03/05 03:57:17;;;;;;;;;;;;;;;3.30;100.00;102170.84;5062353;28;19924;-72
2023/03/05 03:59:44;;;;;;;;;;;;;;;3.26;100.00;102166.66;5054415;28;19916;-71
2023/03/05 04:02:10;;;;;;;;;;;;;;;3.27;100.00;102157.56;5070242;28;19923;-71
2023/03/05 04:04:35;;;;;;;;;;;;;;;3.23;100.00;102153.34;5064168;28;19916;-71
2023/03/05 04:07:00;;;;;;;;;;;;;;;3.21;100.00;102152.63;5067402;28;20291;-71
2023/03/05 04:09:25;;;;;;;;;;;;;;;3.19;100.00;102147.31;5071055;28;20307;-71
2023/03/05 04:11:51;;;;;;;;;;;;;;;3.16;100.00;102141.28;5065183;28;20288;-71
2023/03/05 04:14:16;;;;;;;;;;;;;;;3.13;100.00;102130.69;5067716;28;20384;-71
2023/03/05 04:16:41;;;;;;;;;;;;;;;3.12;100.00;102131.66;5061605;28;20410;-71
2023/03/05 04:19:06;;;;;;;;;;;;;;;3.09;100.00;102121.06;5067278;28;20342;-71
2023/03/05 04:21:32;;;;;;;;;;;;;;;3.11;100.00;102127.25;5069404;28;19916;-71
2023/03/05 04:23:57;;;;;;;;;;;;;;;3.09;100.00;102119.22;5070814;28;19916;-71
2023/03/05 04:26:23;;;;;;;;;;;;;;;3.17;100.00;102118.63;5069876;28;19964;-71
2023/03/05 04:28:48;;;;;;;;;;;;;;;3.22;100.00;102111.88;5047609;28;19924;-72
2023/03/05 04:31:14;;;;;;;;;;;;;;;3.19;100.00;102112.13;5071862;28;19916;-72
2023/03/05 04:33:39;;;;;;;;;;;;;;;3.22;100.00;102113.72;5070184;28;19916;-71
2023/03/05 04:36:04;;;;;;;;;;;;;;;3.23;100.00;102115.44;5076449;28;19916;-71
2023/03/05 04:38:29;;;;;;;;;;;;;;;3.21;100.00;102117.44;5065681;28;20459;-71
2023/03/05 04:40:55;;;;;;;;;;;;;;;3.27;100.00;102122.34;5065848;28;19963;-71
2023/03/05 04:43:21;;;;;;;;;;;;;;;3.37;100.00;102113.38;5069321;28;19921;-72
2023/03/05 04:45:46;;;;;;;;;;;;;;;3.34;100.00;102102.81;5071997;28;20027;-71
2023/03/05 04:48:11;;;;;;;;;;;;;;;3.39;100.00;102110.56;5070503;28;20348;-71
2023/03/05 04:50:37;;;;;;;;;;;;;;;3.38;100.00;102114.25;5067837;28;19943;-71
2023/03/05 04:53:03;;;;;;;;;;;;;;;3.37;100.00;102099.84;5065721;28;19956;-71
2023/03/05 04:55:28;;;;;;;;;;;;;;;3.40;100.00;102090.63;5065531;28;19939;-71
2023/03/05 04:57:53;;;;;;;;;;;;;;;3.40;100.00;102088.78;5061760;28;19917;-71
2023/03/05 05:00:19;;;;;;;;;;;;;;;3.42;100.00;102085.97;5068196;28;19920;-71
2023/03/05 05:02:45;;;;;;;;;;;;;;;3.37;100.00;102082.75;5068738;28;20371;-72
2023/03/05 05:05:11;;;;;;;;;;;;;;;3.38;100.00;102088.03;5067943;28;19920;-71
2023/03/05 05:07:36;;;;;;;;;;;;;;;3.32;100.00;102083.09;5067973;28;19925;-71
2023/03/05 05:10:03;;;;;;;;;;;;;;;3.26;100.00;102082.75;5074442;28;19922;-71
2023/03/05 05:12:29;;;;;;;;;;;;;;;3.18;100.00;102080.63;5052761;28;19916;-72
2023/03/05 05:14:55;;;;;;;;;;;;;;;3.19;100.00;102085.06;5071142;28;20410;-71
2023/03/05 05:17:20;;;;;;;;;;;;;;;3.11;100.00;102078.53;5072182;28;19959;-71
2023/03/05 05:19:45;;;;;;;;;;;;;;;3.10;100.00;102072.22;5067328;28;20289;-71
2023/03/05 05:22:10;;;;;;;;;;;;;;;2.99;100.00;102076.78;5073239;28;20437;-71
2023/03/05 05:24:36;;;;;;;;;;;;;;;2.92;100.00;102073.66;5064695;28;20451;-72
2023/03/05 05:27:01;;;;;;;;;;;;;;;2.83;100.00;102060.84;5068989;28;20442;-73
2023/03/05 05:29:26;;;;;;;;;;;;;;;2.77;100.00;102066.72;5052429;28;20342;-72
2023/03/05 05:31:52;;;;;;;;;;;;;;;2.69;100.00;102062.88;5066699;28;19951;-72
2023/03/05 05:34:18;;;;;;;;;;;;;;;2.65;100.00;102059.56;5066409;28;20371;-72
2023/03/05 05:36:43;;;;;;;;;;;;;;;2.60;100.00;102059.06;5067977;28;19916;-72
2023/03/05 05:39:08;;;;;;;;;;;;;;;2.54;100.00;102059.53;5068565;28;19967;-72
2023/03/05 05:41:33;;;;;;;;;;;;;;;2.50;100.00;102057.16;5066333;28;19923;-72
2023/03/05 05:43:59;;;;;;;;;;;;;;;2.41;100.00;102064.13;5053448;28;19923;-72
2023/03/05 05:46:24;;;;;;;;;;;;;;;2.38;100.00;102058.97;5064337;28;19928;-72
2023/03/05 05:48:49;;;;;;;;;;;;;;;2.30;100.00;102055.94;5069300;28;19923;-72
2023/03/05 05:51:16;;;;;;;;;;;;;;;2.26;100.00;102053.59;5067528;28;19961;-72
2023/03/05 05:53:42;;;;;;;;;;;;;;;2.20;100.00;102049.50;5066069;28;20033;-72
2023/03/05 05:56:09;;;;;;;;;;;;;;;2.16;100.00;102044.44;5070166;28;20468;-72
2023/03/05 05:58:35;;;;;;;;;;;;;;;2.12;100.00;102048.34;5046412;28;19974;-72
2023/03/05 06:01:01;;;;;;;;;;;;;;;2.10;100.00;102047.63;5064554;28;19916;-72
2023/03/05 06:03:26;;;;;;;;;;;;;;;2.06;100.00;102043.41;5066756;28;20011;-71
2023/03/05 06:05:51;;;;;;;;;;;;;;;2.08;100.00;102049.59;5068352;28;19920;-71
2023/03/05 06:08:17;;;;;;;;;;;;;;;2.01;100.00;102042.88;5066345;28;19925;-72
2023/03/05 06:10:43;;;;;;;;;;;;;;;2.03;100.00;102047.19;5067918;28;19925;-72
2023/03/05 06:13:09;;;;;;;;;;;;;;;2.05;100.00;102052.50;5067448;28;19921;-72
2023/03/05 06:15:34;;;;;;;;;;;;;;;2.02;100.00;102047.31;5069571;28;19923;-72
2023/03/05 06:17:59;;;;;;;;;;;;;;;2.04;100.00;102045.38;5054603;28;19944;-72
2023/03/05 06:20:27;;;;;;;;;;;;;;;2.09;100.00;102035.94;5064699;28;19946;-71
2023/03/05 06:22:52;;;;;;;;;;;;;;;2.07;100.00;102042.44;5070455;28;19916;-72
2023/03/05 06:25:17;;;;;;;;;;;;;;;2.05;100.00;102044.38;5066303;28;20406;-71
2023/03/05 06:27:43;;;;;;;;;;;;;;;2.08;100.00;102046.88;5067610;28;19920;-71
2023/03/05 06:30:09;;;;;;;;;;;;;;;2.12;100.00;102041.13;5069117;28;19962;-72
2023/03/05 06:32:34;;;;;;;;;;;;;;;2.18;100.00;102043.38;5068351;28;19920;-71
2023/03/05 06:34:59;;;;;;;;;;;;;;;2.29;100.00;102038.00;5073324;28;19973;-72
2023/03/05 06:37:25;;;;;;;;;;;;;;;2.37;100.00;102032.03;5069095;28;20292;-71
2023/03/05 06:39:50;;;;;;;;;;;;;;;2.41;100.00;102047.06;5065460;28;19970;-71
2023/03/05 06:42:18;;;;;;;;;;;;;;;2.43;100.00;102037.84;5063071;28;19961;-71
2023/03/05 06:44:44;;;;;;;;;;;;;;;2.46;100.00;102031.34;5069606;28;19924;-71
2023/03/05 06:47:09;;;;;;;;;;;;;;;2.50;100.00;102043.63;5066802;28;20307;-71
2023/03/05 06:49:35;;;;;;;;;;;;;;;2.52;100.00;102036.28;5067709;28;19917;-71
2023/03/05 06:52:00;;;;;;;;;;;;;;;2.61;100.00;102044.53;5067997;28;19917;-71
2023/03/05 06:54:26;;;;;;;;;;;;;;;2.66;100.00;102042.34;5065026;28;19917;-71
2023/03/05 06:56:51;;;;;;;;;;;;;;;2.75;100.00;102029.97;5068689;28;20371;-71
2023/03/05 06:59:16;;;;;;;;;;;;;;;2.83;100.00;102033.78;5055397;28;19920;-71
2023/03/05 07:01:42;;;;;;;;;;;;;;;2.86;100.00;102036.28;5067767;28;19916;-71
2023/03/05 07:04:08;;;;;;;;;;;;;;;2.96;100.00;102028.28;5050557;28;19959;-71
2023/03/05 07:06:34;;;;;;;;;;;;;;;3.06;100.00;102037.41;5045652;28;20013;-71
2023/03/05 07:09:00;;;;;;;;;;;;;;;3.13;100.00;102041.34;5067990;28;19935;-71
2023/03/05 07:11:26;;;;;;;;;;;;;;;3.17;100.00;102042.84;5068382;28;19928;-71
2023/03/05 07:13:51;;;;;;;;;;;;;;;3.19;100.00;102036.34;5082920;28;20273;-71
2023/03/05 07:16:18;;;;;;;;;;;;;;;3.24;100.00;102030.53;5064507;28;19925;-71
2023/03/05 07:18:43;;;;;;;;;;;;;;;3.31;100.00;102031.81;5067182;28;19921;-71
2023/03/05 07:21:12;;;;;;;;;;;;;;;3.35;100.00;102030.56;5065253;28;19924;-71
2023/03/05 07:23:37;;;;;;;;;;;;;;;3.41;100.00;102027.34;5051387;28;19921;-71
2023/03/05 07:26:03;;;;;;;;;;;;;;;3.43;100.00;102022.69;5069739;28;20440;-72
2023/03/05 07:28:29;;;;;;;;;;;;;;;3.47;100.00;102019.59;5074410;28;19951;-72
2023/03/05 07:30:58;;;;;;;;;;;;;;;3.52;100.00;102016.53;5067269;28;19936;-69
2023/03/05 07:33:23;;;;;;;;;;;;;;;3.60;100.00;102019.47;5071958;28;19917;-72
2023/03/05 07:35:49;;;;;;;;;;;;;;;3.66;100.00;102018.97;5070105;28;19928;-71
2023/03/05 07:38:14;;;;;;;;;;;;;;;3.69;100.00;102014.16;5064518;28;19916;-72
2023/03/05 07:40:39;;;;;;;;;;;;;;;3.75;100.00;102019.09;5063601;28;19985;-72
2023/03/05 07:43:04;;;;;;;;;;;;;;;3.78;100.00;102018.84;5066837;28;19917;-72
2023/03/05 07:45:30;;;;;;;;;;;;;;;3.86;100.00;102015.50;5064959;28;19939;-72
2023/03/05 07:47:56;;;;;;;;;;;;;;;3.95;100.00;102020.19;5067336;28;19965;-72
2023/03/05 07:50:21;;;;;;;;;;;;;;;3.99;100.00;102010.78;5047304;28;20281;-71
2023/03/05 07:52:46;;;;;;;;;;;;;;;4.04;100.00;102000.44;5050065;28;20410;-71
2023/03/05 07:55:11;;;;;;;;;;;;;;;4.15;100.00;102005.81;5055574;28;19951;-71
2023/03/05 07:57:37;;;;;;;;;;;;;;;4.24;100.00;102005.06;5055139;28;20015;-70
2023/03/05 08:00:03;;;;;;;;;;;;;;;4.38;100.00;102002.06;5068274;28;19924;-71
2023/03/05 08:02:29;;;;;;;;;;;;;;;4.52;100.00;101999.91;5055870;28;20384;-71
2023/03/05 08:04:54;;;;;;;;;;;;;;;4.50;100.00;102006.44;5071835;28;19969;-71
2023/03/05 08:07:19;;;;;;;;;;;;;;;4.56;100.00;102003.19;5058298;28;20046;-71
2023/03/05 08:09:45;;;;;;;;;;;;;;;4.60;100.00;102000.09;5058806;28;19959;-71
2023/03/05 08:12:10;;;;;;;;;;;;;;;4.60;100.00;101997.38;5061579;28;20437;-70
2023/03/05 08:14:35;;;;;;;;;;;;;;;4.60;100.00;102002.78;5064799;28;19928;-71
2023/03/05 08:17:02;;;;;;;;;;;;;;;4.67;100.00;101998.59;5059030;28;19927;-71
2023/03/05 08:19:27;;;;;;;;;;;;;;;4.64;100.00;101998.84;5064804;28;19932;-71
2023/03/05 08:21:52;;;;;;;;;;;;;;;4.71;100.00;101999.19;5065242;28;20022;-71
2023/03/05 08:24:18;;;;;;;;;;;;;;;4.78;100.00;101990.38;5067029;28;19970;-70
2023/03/05 08:26:44;;;;;;;;;;;;;;;4.92;100.00;101994.63;5068527;28;20390;-71
2023/03/05 08:29:10;;;;;;;;;;;;;;;5.06;100.00;101988.81;5064314;28;19913;-70
2023/03/05 08:31:36;;;;;;;;;;;;;;;5.01;100.00;102001.94;5061658;28;20290;-71
2023/03/05 08:34:02;;;;;;;;;;;;;;;4.75;100.00;101995.22;5067347;28;19916;-71
2023/03/05 08:36:27;;;;;;;;;;;;;;;4.63;100.00;101991.69;5054760;28;19928;-71
2023/03/05 08:38:53;;;;;;;;;;;;;;;4.60;100.00;101988.38;5059311;28;19912;-71
2023/03/05 08:41:18;;;;;;;;;;;;;;;4.64;100.00;101979.84;5065992;28;19920;-71
2023/03/05 08:43:44;;;;;;;;;;;;;;;4.69;100.00;101974.88;5068255;28;19922;-71
2023/03/05 08:46:13;;;;;;;;;;;;;;;4.67;100.00;101976.88;5063943;28;20322;-71
2023/03/05 08:48:38;;;;;;;;;;;;;;;4.79;100.00;101972.22;5064790;28;19917;-71
2023/03/05 08:51:07;;;;;;;;;;;;;;;4.80;100.00;101977.53;5060361;28;20337;-71
2023/03/05 08:53:33;;;;;;;;;;;;;;;4.90;100.00;101972.16;5066369;28;20011;-71
2023/03/05 08:55:59;;;;;;;;;;;;;;;4.88;100.00;101969.59;5064392;28;20003;-71
2023/03/05 08:58:24;;;;;;;;;;;;;;;4.76;100.00;101967.09;5064104;28;19926;-71
2023/03/05 09:00:50;;;;;;;;;;;;;;;4.84;100.00;101968.13;5063743;28;19969;-71
2023/03/05 09:03:15;;;;;;;;;;;;;;;4.83;100.00;101970.97;5062592;28;19923;-71
2023/03/05 09:05:40;;;;;;;;;;;;;;;4.93;100.00;101963.75;5065046;28;19920;-71
2023/03/05 09:08:05;;;;;;;;;;;;;;;4.98;100.00;101966.94;5065633;28;20304;-72
2023/03/05 09:10:31;;;;;;;;;;;;;;;5.07;100.00;101966.13;5069362;28;19916;-72
2023/03/05 09:12:56;;;;;;;;;;;;;;;5.23;100.00;101961.06;5052622;28;19916;-72
2023/03/05 09:15:21;;;;;;;;;;;;;;;5.18;100.00;101960.63;5071371;28;20303;-71
2023/03/05 09:17:46;;;;;;;;;;;;;;;5.40;100.00;101955.00;5068909;28;20023;-71
2023/03/05 09:20:12;;;;;;;;;;;;;;;5.46;100.00;101958.00;5046101;28;19972;-71
2023/03/05 09:22:38;;;;;;;;;;;;;;;5.49;100.00;101960.47;5065745;28;20003;-72
2023/03/05 09:25:03;;;;;;;;;;;;;;;5.55;100.00;101957.19;5073242;28;19916;-71
2023/03/05 09:27:31;;;;;;;;;;;;;;;5.68;100.00;101954.22;5067126;28;20285;-71
2023/03/05 09:29:56;;;;;;;;;;;;;;;5.61;98.62;101950.34;5067869;28;19943;-72
2023/03/05 09:32:22;;;;;;;;;;;;;;;5.64;98.89;101948.22;5059055;28;20025;-71
2023/03/05 09:34:47;;;;;;;;;;;;;;;5.74;100.00;101943.66;5065983;28;21351;-72
2023/03/05 09:37:12;;;;;;;;;;;;;;;5.81;97.51;101949.41;5066994;28;19952;-72
2023/03/05 09:39:38;;;;;;;;;;;;;;;5.78;96.88;101942.38;5064518;28;20165;-72
2023/03/05 09:42:06;;;;;;;;;;;;;;;5.85;97.93;101943.56;5067403;28;19991;-71
2023/03/05 09:44:40;;;;;;;;;;;;;;;5.99;98.25;101948.59;5054343;28;19943;-71
2023/03/05 09:47:17;;;;;;;;;;;;;;;6.22;97.70;101938.31;5061121;28;19931;-71
2023/03/05 09:49:58;;;;;;;;;;;;;;;6.28;96.65;101932.28;5069777;28;19963;-73
2023/03/05 09:52:30;;;;;;;;;;;;;;;6.06;94.95;101938.88;5061632;28;19944;-71
2023/03/05 09:54:56;;;;;;;;;;;;;;;6.21;95.02;101932.03;5069676;28;20350;-71
2023/03/05 09:57:25;;;;;;;;;;;;;;;6.52;95.17;101921.84;5068761;28;19921;-71
2023/03/05 09:59:56;;;;;;;;;;;;;;;6.82;94.38;101921.63;5072561;28;19951;-71
2023/03/05 10:02:26;;;;;;;;;;;;;;;7.04;91.44;101921.31;5068571;28;20277;-71
2023/03/05 10:04:57;;;;;;;;;;;;;;;7.02;92.54;101918.72;5060640;28;19916;-72
2023/03/05 10:07:42;;;;;;;;;;;;;;;7.26;93.65;101918.22;5060610;28;19921;-72
2023/03/05 10:10:10;;;;;;;;;;;;;;;7.02;92.23;101913.28;5065362;28;20356;-72
2023/03/05 10:12:43;;;;;;;;;;;;;;;6.71;89.52;101921.78;5068637;28;19912;-72
2023/03/05 10:15:12;;;;;;;;;;;;;;;6.64;91.19;101916.09;5063919;28;19978;-72
2023/03/05 10:17:38;;;;;;;;;;;;;;;6.43;92.48;101920.84;5066582;28;19938;-72
2023/03/05 10:20:22;;;;;;;;;;;;;;;6.27;96.15;101928.72;5068632;28;19924;-72
2023/03/05 10:22:57;;;;;;;;;;;;;;;5.90;98.58;101929.56;5066423;28;20016;-72
2023/03/05 10:25:25;;;;;;;;;;;;;;;5.70;100.00;101922.31;5065933;28;19921;-72
2023/03/05 10:27:54;;;;;;;;;;;;;;;5.42;97.99;101923.09;5064938;28;20342;-72
2023/03/05 10:30:19;;;;;;;;;;;;;;;5.49;100.00;101919.69;5073745;28;20368;-72
2023/03/05 10:32:53;;;;;;;;;;;;;;;5.48;98.15;101914.41;5072053;28;19936;-72
2023/03/05 10:35:27;;;;;;;;;;;;;;;5.34;95.37;101907.50;5052766;28;19924;-72
2023/03/05 10:37:59;;;;;;;;;;;;;;;5.25;95.48;101904.75;5048834;28;19923;-73
2023/03/05 10:41:00;;;;;;;;;;;;;;;5.34;97.89;101901.22;5069308;28;19916;-72
2023/03/05 10:43:34;;;;;;;;;;;;;;;5.31;96.37;101885.19;4952879;28;19925;-72
2023/03/05 10:46:01;;;;;;;;;;;;;;;5.41;94.63;101886.94;5049265;28;20352;-72
2023/03/05 10:48:38;;;;;;;;;;;;;;;5.43;94.21;101879.50;5069873;28;20505;-73
2023/03/05 10:51:11;;;;;;;;;;;;;;;5.54;94.12;101881.22;5063626;28;19928;-73
2023/03/05 10:53:57;;;;;;;;;;;;;;;5.78;94.60;101873.56;5069104;28;19920;-73
2023/03/05 10:56:24;;;;;;;;;;;;;;;6.08;95.25;101865.31;5067683;28;19971;-73
2023/03/05 10:58:51;;;;;;;;;;;;;;;6.13;91.46;101863.88;5063518;28;19916;-73
2023/03/05 11:01:16;;;;;;;;;;;;;;;6.19;90.13;101851.56;5048638;28;20015;-73
2023/03/05 11:03:49;;;;;;;;;;;;;;;6.27;89.79;101858.00;5061609;28;20003;-73
2023/03/05 11:06:25;;;;;;;;;;;;;;;6.42;91.23;101859.25;5053391;28;20007;-73
2023/03/05 11:08:50;;;;;;;;;;;;;;;6.72;91.17;101856.31;5066872;28;20014;-73
2023/03/05 11:11:16;;;;;;;;;;;;;;;6.73;89.43;101851.75;5067673;28;20011;-73
2023/03/05 11:13:54;;;;;;;;;;;;;;;6.75;88.02;101850.59;5065181;28;19991;-73
2023/03/05 11:16:21;;;;;;;;;;;;;;;6.69;87.87;101839.44;5065045;28;19928;-73
2023/03/05 11:18:46;;;;;;;;;;;;;;;7.04;89.43;101834.97;5065308;28;19924;-73
2023/03/05 11:21:18;;;;;;;;;;;;;;;7.10;89.49;101836.25;5058902;28;20298;-73
2023/03/05 11:24:02;;;;;;;;;;;;;;;7.61;89.37;101828.31;5069673;28;19931;-73
2023/03/05 11:26:27;;;;;;;;;;;;;;;7.60;86.69;101834.78;5071508;28;20288;-74
2023/03/05 11:28:52;;;;;;;;;;;;;;;7.39;86.99;101823.31;5065565;28;19973;-73
2023/03/05 11:31:17;;;;;;;;;;;;;;;7.71;84.25;101823.66;5065520;28;20448;-73
2023/03/05 11:33:57;;;;;;;;;;;;;;;8.01;84.91;101826.03;5066328;28;20449;-73
2023/03/05 11:36:24;;;;;;;;;;;;;;;8.42;83.68;101809.84;5062987;28;19932;-73
2023/03/05 11:38:58;;;;;;;;;;;;;;;8.43;83.04;101813.44;5061786;28;19924;-73
2023/03/05 11:41:27;;;;;;;;;;;;;;;7.91;82.66;101815.16;5060781;28;19928;-73
2023/03/05 11:43:53;;;;;;;;;;;;;;;7.86;81.70;101811.22;5067138;28;19916;-73
2023/03/05 11:46:19;;;;;;;;;;;;;;;7.57;81.17;101807.84;5043262;28;19921;-73
2023/03/05 11:48:47;;;;;;;;;;;;;;;7.34;84.40;101807.44;5064119;28;20316;-73
2023/03/05 11:51:18;;;;;;;;;;;;;;;7.17;84.20;101800.09;5062569;28;19986;-73
2023/03/05 11:53:44;;;;;;;;;;;;;;;7.29;83.57;101803.44;5064304;28;19928;-73
2023/03/05 11:56:27;;;;;;;;;;;;;;;7.20;84.64;101801.66;5059827;28;20254;-73
2023/03/05 11:59:01;;;;;;;;;;;;;;;7.32;84.42;101794.97;5071807;28;19916;-73
2023/03/05 12:01:29;;;;;;;;;;;;;;;7.47;82.98;101791.56;5047365;28;19920;-73
2023/03/05 12:03:55;;;;;;;;;;;;;;;7.37;81.40;101793.47;5063395;28;19920;-73
2023/03/05 12:06:42;;;;;;;;;;;;;;;7.48;84.02;101784.25;5052038;28;19920;-73
2023/03/05 12:09:23;;;;;;;;;;;;;;;7.62;81.13;101775.50;5067117;28;19924;-73
2023/03/05 12:11:52;;;;;;;;;;;;;;;7.67;80.88;101770.44;5060376;28;19947;-73
2023/03/05 12:14:31;;;;;;;;;;;;;;;7.80;80.83;101768.19;5056942;28;19928;-73
2023/03/05 12:17:12;;;;;;;;;;;;;;;8.01;79.41;101757.81;5062266;28;19924;-73
2023/03/05 12:19:57;;;;;;;;;;;;;;;7.89;78.90;101757.19;5053069;28;19938;-73
2023/03/05 12:22:24;;;;;;;;;;;;;;;7.84;78.97;101745.91;5068815;28;19943;-73
2023/03/05 12:24:50;;;;;;;;;;;;;;;7.72;79.29;101732.66;5079564;28;20341;-73
2023/03/05 12:27:29;;;;;;;;;;;;;;;7.77;81.37;101735.78;5052311;28;19928;-73
2023/03/05 12:29:56;;;;;;;;;;;;;;;7.48;82.27;101727.84;5067188;28;19973;-73
2023/03/05 12:32:21;;;;;;;;;;;;;;;7.36;80.66;101728.25;5065628;28;19938;-73
2023/03/05 12:34:59;;;;;;;;;;;;;;;7.19;82.36;101723.63;5066524;28;19920;-73
2023/03/05 12:37:25;;;;;;;;;;;;;;;7.09;82.09;101714.66;5051157;28;19916;-73